sensor_id;sensor_type;location;lat;lon;timestamp;P1;durP1;ratioP1;P2;durP2;ratioP2
73104;SDS011;61296;50.526;30.792;2023-07-20T00:07:26;5.47;;;2.80;;
73104;SDS011;61296;50.526;30.792;2023-07-20T00:22:45;4.97;;;2.67;;
73104;SDS011;61296;50.526;30.792;2023-07-20T00:38:05;5.93;;;2.70;;
73104;SDS011;61296;50.526;30.792;2023-07-20T00:53:24;5.80;;;2.85;;
73104;SDS011;61296;50.526;30.792;2023-07-20T01:08:52;3.38;;;2.50;;
73104;SDS011;61296;50.526;30.792;2023-07-20T01:24:27;4.70;;;3.20;;
73104;SDS011;61296;50.526;30.792;2023-07-20T01:39:59;9.20;;;3.53;;
73104;SDS011;61296;50.526;30.792;2023-07-20T01:55:19;5.45;;;3.20;;
73104;SDS011;61296;50.526;30.792;2023-07-20T02:10:39;4.90;;;2.95;;
73104;SDS011;61296;50.526;30.792;2023-07-20T02:26:01;7.93;;;3.40;;
73104;SDS011;61296;50.526;30.792;2023-07-20T02:41:20;4.10;;;2.90;;
73104;SDS011;61296;50.526;30.792;2023-07-20T02:56:39;5.82;;;3.25;;
73104;SDS011;61296;50.526;30.792;2023-07-20T03:11:59;3.67;;;2.17;;
73104;SDS011;61296;50.526;30.792;2023-07-20T03:27:19;3.30;;;2.60;;
73104;SDS011;61296;50.526;30.792;2023-07-20T03:42:40;3.75;;;2.25;;
73104;SDS011;61296;50.526;30.792;2023-07-20T03:58:00;4.88;;;2.95;;
73104;SDS011;61296;50.526;30.792;2023-07-20T04:13:22;4.53;;;3.33;;
73104;SDS011;61296;50.526;30.792;2023-07-20T04:28:42;4.88;;;3.05;;
73104;SDS011;61296;50.526;30.792;2023-07-20T04:44:05;4.65;;;3.00;;
73104;SDS011;61296;50.526;30.792;2023-07-20T04:59:26;5.43;;;2.42;;
73104;SDS011;61296;50.526;30.792;2023-07-20T05:14:46;5.53;;;2.30;;
73104;SDS011;61296;50.526;30.792;2023-07-20T05:30:05;4.40;;;2.22;;
73104;SDS011;61296;50.526;30.792;2023-07-20T05:45:26;3.75;;;2.65;;
73104;SDS011;61296;50.526;30.792;2023-07-20T06:00:47;6.20;;;2.40;;
73104;SDS011;61296;50.526;30.792;2023-07-20T06:16:07;9.63;;;2.65;;
73104;SDS011;61296;50.526;30.792;2023-07-20T06:31:27;3.97;;;2.20;;
73104;SDS011;61296;50.526;30.792;2023-07-20T06:46:47;15.50;;;2.80;;
73104;SDS011;61296;50.526;30.792;2023-07-20T07:02:06;5.10;;;2.17;;
73104;SDS011;61296;50.526;30.792;2023-07-20T07:17:25;6.63;;;2.10;;
73104;SDS011;61296;50.526;30.792;2023-07-20T07:32:44;3.92;;;2.22;;
73104;SDS011;61296;50.526;30.792;2023-07-20T07:48:04;3.95;;;2.05;;
73104;SDS011;61296;50.526;30.792;2023-07-20T08:03:24;4.50;;;2.60;;
73104;SDS011;61296;50.526;30.792;2023-07-20T08:18:44;4.65;;;2.65;;
73104;SDS011;61296;50.526;30.792;2023-07-20T08:34:04;5.30;;;2.92;;
73104;SDS011;61296;50.526;30.792;2023-07-20T08:49:25;14.73;;;2.60;;
73104;SDS011;61296;50.526;30.792;2023-07-20T09:04:45;5.65;;;1.95;;
73104;SDS011;61296;50.526;30.792;2023-07-20T09:20:05;3.90;;;2.08;;
73104;SDS011;61296;50.526;30.792;2023-07-20T09:35:31;3.65;;;1.88;;
73104;SDS011;61296;50.526;30.792;2023-07-20T09:50:50;3.72;;;1.90;;
73104;SDS011;61296;50.526;30.792;2023-07-20T10:06:10;6.35;;;2.67;;
73104;SDS011;61296;50.526;30.792;2023-07-20T10:21:35;3.55;;;1.90;;
73104;SDS011;61296;50.526;30.792;2023-07-20T10:36:59;4.43;;;2.28;;
73104;SDS011;61296;50.526;30.792;2023-07-20T10:52:19;2.35;;;2.15;;
73104;SDS011;61296;50.526;30.792;2023-07-20T11:07:39;4.03;;;2.42;;
73104;SDS011;61296;50.526;30.792;2023-07-20T11:22:59;4.53;;;2.40;;
73104;SDS011;61296;50.526;30.792;2023-07-20T11:38:19;6.65;;;2.00;;
73104;SDS011;61296;50.526;30.792;2023-07-20T11:53:39;6.03;;;3.83;;
73104;SDS011;61296;50.526;30.792;2023-07-20T12:08:58;3.90;;;2.03;;
73104;SDS011;61296;50.526;30.792;2023-07-20T12:24:21;3.28;;;1.90;;
73104;SDS011;61296;50.526;30.792;2023-07-20T12:39:40;2.70;;;2.30;;
73104;SDS011;61296;50.526;30.792;2023-07-20T12:55:03;2.60;;;1.90;;
73104;SDS011;61296;50.526;30.792;2023-07-20T13:10:27;3.10;;;2.00;;
73104;SDS011;61296;50.526;30.792;2023-07-20T13:25:46;3.28;;;2.10;;
73104;SDS011;61296;50.526;30.792;2023-07-20T13:41:06;2.30;;;1.90;;
73104;SDS011;61296;50.526;30.792;2023-07-20T13:56:25;4.72;;;2.10;;
73104;SDS011;61296;50.526;30.792;2023-07-20T14:11:46;7.78;;;2.45;;
73104;SDS011;61296;50.526;30.792;2023-07-20T14:27:05;8.30;;;6.35;;
73104;SDS011;61296;50.526;30.792;2023-07-20T14:42:25;8.88;;;2.28;;
73104;SDS011;61296;50.526;30.792;2023-07-20T14:57:44;4.78;;;2.70;;
73104;SDS011;61296;50.526;30.792;2023-07-20T15:13:04;3.67;;;2.85;;
73104;SDS011;61296;50.526;30.792;2023-07-20T15:28:23;7.13;;;2.78;;
73104;SDS011;61296;50.526;30.792;2023-07-20T15:43:42;7.22;;;2.65;;
73104;SDS011;61296;50.526;30.792;2023-07-20T15:59:02;7.80;;;2.72;;
73104;SDS011;61296;50.526;30.792;2023-07-20T16:14:21;10.90;;;5.35;;
73104;SDS011;61296;50.526;30.792;2023-07-20T16:29:40;8.40;;;6.72;;
73104;SDS011;61296;50.526;30.792;2023-07-20T16:44:59;12.57;;;7.75;;
73104;SDS011;61296;50.526;30.792;2023-07-20T17:00:19;12.18;;;7.15;;
73104;SDS011;61296;50.526;30.792;2023-07-20T17:15:39;11.27;;;8.55;;
73104;SDS011;61296;50.526;30.792;2023-07-20T17:30:59;9.45;;;7.72;;
73104;SDS011;61296;50.526;30.792;2023-07-20T17:46:19;10.90;;;7.85;;
73104;SDS011;61296;50.526;30.792;2023-07-20T18:01:38;12.55;;;8.43;;
73104;SDS011;61296;50.526;30.792;2023-07-20T18:16:57;9.98;;;7.22;;
73104;SDS011;61296;50.526;30.792;2023-07-20T18:32:16;12.15;;;8.90;;
73104;SDS011;61296;50.526;30.792;2023-07-20T18:47:37;12.30;;;8.93;;
73104;SDS011;61296;50.526;30.792;2023-07-20T19:02:57;13.52;;;9.57;;
73104;SDS011;61296;50.526;30.792;2023-07-20T19:18:17;14.75;;;10.05;;
73104;SDS011;61296;50.526;30.792;2023-07-20T19:33:36;14.50;;;10.50;;
73104;SDS011;61296;50.526;30.792;2023-07-20T19:48:57;11.43;;;8.90;;
73104;SDS011;61296;50.526;30.792;2023-07-20T20:04:16;12.52;;;9.32;;
73104;SDS011;61296;50.526;30.792;2023-07-20T20:19:39;13.02;;;8.32;;
73104;SDS011;61296;50.526;30.792;2023-07-20T20:34:59;12.13;;;8.88;;
73104;SDS011;61296;50.526;30.792;2023-07-20T20:50:18;10.80;;;9.15;;
73104;SDS011;61296;50.526;30.792;2023-07-20T21:05:39;15.00;;;11.52;;
73104;SDS011;61296;50.526;30.792;2023-07-20T21:20:59;15.20;;;9.82;;
73104;SDS011;61296;50.526;30.792;2023-07-20T21:36:19;16.85;;;12.20;;
73104;SDS011;61296;50.526;30.792;2023-07-20T21:51:38;10.40;;;8.95;;
73104;SDS011;61296;50.526;30.792;2023-07-20T22:06:59;12.68;;;9.75;;
73104;SDS011;61296;50.526;30.792;2023-07-20T22:22:18;12.95;;;10.70;;
73104;SDS011;61296;50.526;30.792;2023-07-20T22:37:37;11.88;;;9.38;;
73104;SDS011;61296;50.526;30.792;2023-07-20T22:52:56;15.07;;;10.60;;
73104;SDS011;61296;50.526;30.792;2023-07-20T23:08:15;15.05;;;11.30;;
73104;SDS011;61296;50.526;30.792;2023-07-20T23:23:36;14.18;;;10.38;;
73104;SDS011;61296;50.526;30.792;2023-07-20T23:38:55;15.63;;;9.90;;
73104;SDS011;61296;50.526;30.792;2023-07-20T23:54:15;9.43;;;7.97;;
